OCW weather

Warren Field
Washington, North Carolina, United States

Public forecast

Using degrees Fahrenheit for public forecast. Weather courtesy of forecast.io.

METAR (pilot weather report)

Retrieved 2019/04/25 23:20 UTC (0 seconds ago):

KOCW 252320Z AUTO 16003KT 10SM CLR 26/14 A2984 RMK AO2 T02580140

TAF (pilot weather forecast)

Closest forecast is Pitt Greenville Airport, 16.8 nm (31.2 km) WNW. Retrieved 2019/04/25 18:22 UTC (5 hours ago):

TAF KPGV 251720Z 2518/2618 22009KT P6SM SCT200 FM260800 20008KT P6SM BKN100 FM261400 21011G22KT 6SM SHRA SCT025 BKN045 AMD LTD TO CLD VIS AND WIND